createdAt,value
2017-06-23T00:01:52.651Z,23.90
2017-06-23T00:04:20.929Z,21.97
2017-06-23T00:06:49.248Z,21.33
2017-06-23T00:09:18.415Z,19.67
2017-06-23T00:11:46.814Z,19.50
2017-06-23T00:14:15.084Z,19.27
2017-06-23T00:16:43.460Z,18.03
2017-06-23T00:19:11.829Z,17.90
2017-06-23T00:21:40.207Z,19.13
2017-06-23T00:24:08.485Z,19.10
2017-06-23T00:26:36.864Z,18.53
2017-06-23T00:29:05.142Z,19.00
2017-06-23T00:31:33.520Z,17.77
2017-06-23T00:34:01.795Z,18.73
2017-06-23T00:36:30.057Z,19.50
2017-06-23T00:38:58.438Z,19.10
2017-06-23T00:41:26.731Z,18.03
2017-06-23T00:43:55.132Z,18.43
2017-06-23T00:46:24.220Z,20.10
2017-06-23T00:48:52.587Z,19.20
2017-06-23T00:51:20.965Z,19.30
2017-06-23T00:53:49.244Z,19.03
2017-06-23T00:56:17.624Z,20.67
2017-06-23T00:58:45.905Z,20.07
2017-06-23T01:01:14.210Z,20.43
2017-06-23T01:03:43.274Z,17.20
2017-06-23T01:06:11.600Z,17.80
2017-06-23T01:08:39.892Z,19.00
2017-06-23T01:11:08.208Z,20.70
2017-06-23T01:13:36.598Z,18.73
2017-06-23T01:16:04.934Z,19.50
2017-06-23T01:18:33.999Z,19.10
2017-06-23T01:21:02.392Z,19.23
2017-06-23T01:23:30.773Z,19.60
2017-06-23T01:25:59.049Z,19.80
2017-06-23T01:28:27.398Z,18.50
2017-06-23T01:30:55.704Z,16.63
2017-06-23T01:33:23.985Z,17.33
2017-06-23T01:35:52.287Z,15.30
2017-06-23T01:38:21.328Z,13.50
2017-06-23T01:40:49.758Z,14.43
2017-06-23T01:43:18.790Z,13.87
2017-06-23T01:45:47.113Z,12.23
2017-06-23T01:48:15.485Z,9.87
2017-06-23T01:50:43.864Z,9.17
2017-06-23T01:53:12.293Z,9.60
2017-06-23T01:55:40.573Z,9.23
2017-06-23T01:58:08.904Z,9.07
2017-06-23T02:00:37.180Z,10.97
2017-06-23T02:03:05.456Z,12.33
2017-06-23T02:05:33.745Z,13.33
2017-06-23T02:08:02.123Z,15.37
2017-06-23T02:10:30.491Z,13.50
2017-06-23T02:12:58.768Z,14.50
2017-06-23T02:15:27.154Z,14.83
2017-06-23T02:17:55.523Z,14.07
2017-06-23T02:20:23.904Z,12.13
2017-06-23T02:22:52.201Z,13.47
2017-06-23T02:25:21.231Z,12.47
2017-06-23T02:27:49.524Z,11.93
2017-06-23T02:30:17.836Z,11.90
2017-06-23T02:32:46.195Z,10.23
2017-06-23T02:35:15.252Z,10.70
2017-06-23T02:37:43.585Z,10.60
2017-06-23T02:40:11.882Z,9.73
2017-06-23T02:42:40.244Z,8.70
2017-06-23T02:45:08.517Z,6.03
2017-06-23T02:47:37.577Z,10.27
2017-06-23T02:50:06.548Z,9.00
2017-06-23T02:52:34.820Z,9.87
2017-06-23T02:55:03.239Z,10.03
2017-06-23T02:57:31.604Z,10.07
2017-06-23T02:59:59.880Z,8.57
2017-06-23T03:02:28.144Z,10.73
2017-06-23T03:04:56.452Z,8.63
2017-06-23T03:07:24.754Z,8.67
2017-06-23T03:09:53.074Z,9.20
2017-06-23T03:12:21.372Z,9.70
2017-06-23T03:14:49.760Z,10.83
2017-06-23T03:17:18.824Z,11.47
2017-06-23T03:19:47.137Z,12.57
2017-06-23T03:22:15.400Z,11.60
2017-06-23T03:24:43.719Z,11.57
2017-06-23T03:27:11.988Z,14.10
2017-06-23T03:29:40.355Z,14.17
2017-06-23T03:32:09.424Z,13.73
2017-06-23T03:34:37.706Z,15.50
2017-06-23T03:37:06.081Z,19.80
2017-06-23T03:39:34.378Z,18.90
2017-06-23T03:42:03.560Z,19.00
2017-06-23T03:44:31.836Z,18.70
2017-06-23T03:47:00.118Z,21.27
2017-06-23T03:49:28.400Z,23.83
2017-06-23T03:51:56.764Z,21.80
2017-06-23T03:54:25.149Z,25.73
2017-06-23T03:56:53.439Z,24.77
2017-06-23T03:59:22.620Z,25.53
2017-06-23T04:01:50.897Z,28.40
2017-06-23T04:04:19.156Z,28.17
2017-06-23T04:06:47.467Z,29.90
2017-06-23T04:09:15.875Z,29.60
2017-06-23T04:11:44.942Z,31.50
2017-06-23T04:14:13.261Z,31.00
2017-06-23T04:16:41.537Z,30.97
2017-06-23T04:19:09.864Z,30.60
2017-06-23T04:21:38.137Z,34.20
2017-06-23T04:24:06.459Z,31.87
2017-06-23T04:26:34.731Z,33.57
2017-06-23T04:29:03.755Z,32.23
2017-06-23T04:31:32.070Z,34.13
2017-06-23T04:34:00.444Z,32.90
2017-06-23T04:36:28.823Z,34.10
2017-06-23T04:38:57.202Z,35.47
2017-06-23T04:41:25.510Z,33.37
2017-06-23T04:43:54.237Z,32.50
2017-06-23T04:46:23.276Z,33.03
2017-06-23T04:48:51.618Z,36.67
2017-06-23T04:51:20.715Z,36.73
2017-06-23T04:53:49.113Z,34.87
2017-06-23T04:56:18.166Z,36.60
2017-06-23T04:58:46.565Z,38.17
2017-06-23T05:01:14.848Z,36.40
2017-06-23T05:03:43.168Z,35.83
2017-06-23T05:06:12.246Z,35.97
2017-06-23T05:08:41.206Z,38.13
2017-06-23T05:11:11.192Z,36.10
2017-06-23T05:13:39.452Z,36.27
2017-06-23T05:16:07.883Z,35.07
2017-06-23T05:18:36.212Z,35.50
2017-06-23T05:21:04.691Z,33.27
2017-06-23T05:23:33.746Z,34.37
2017-06-23T05:26:02.874Z,36.57
2017-06-23T05:28:32.044Z,35.07
2017-06-23T05:31:00.335Z,37.80
2017-06-23T05:33:28.632Z,37.80
2017-06-23T05:35:56.904Z,36.97
2017-06-23T05:38:25.944Z,36.87
2017-06-23T05:40:54.289Z,35.20
2017-06-23T05:43:22.567Z,31.70
2017-06-23T05:45:50.932Z,33.53
2017-06-23T05:48:19.203Z,35.07
2017-06-23T05:50:47.588Z,35.50
2017-06-23T05:53:15.888Z,38.10
2017-06-23T05:55:44.981Z,35.30
2017-06-23T05:58:13.244Z,32.10
2017-06-23T06:00:41.548Z,34.73
2017-06-23T06:03:10.630Z,31.27
2017-06-23T06:05:38.987Z,33.10
2017-06-23T06:08:07.375Z,28.20
2017-06-23T06:10:35.666Z,25.10
2017-06-23T06:13:03.975Z,24.93
2017-06-23T06:15:32.250Z,24.07
2017-06-23T06:18:00.584Z,24.70
2017-06-23T06:20:28.835Z,22.63
2017-06-23T06:22:57.130Z,26.17
2017-06-23T06:25:25.518Z,24.23
2017-06-23T06:27:53.796Z,21.00
2017-06-23T06:30:22.192Z,21.37
2017-06-23T06:32:51.256Z,22.10
2017-06-23T06:35:19.751Z,20.93
2017-06-23T06:37:48.031Z,22.13
2017-06-23T06:40:16.294Z,22.30
2017-06-23T06:42:44.716Z,22.43
2017-06-23T06:45:12.999Z,23.13
2017-06-23T06:47:42.155Z,21.30
2017-06-23T06:50:10.442Z,21.93
2017-06-23T06:52:38.807Z,20.83
2017-06-23T06:55:07.910Z,22.63
2017-06-23T06:57:37.062Z,21.60
2017-06-23T07:00:05.337Z,26.00
2017-06-23T07:02:33.730Z,25.80
2017-06-23T07:05:02.100Z,27.07
2017-06-23T07:07:30.401Z,23.70
2017-06-23T07:09:58.791Z,22.50
2017-06-23T07:12:27.835Z,23.53
2017-06-23T07:14:56.115Z,23.70
2017-06-23T07:17:24.394Z,22.97
2017-06-23T07:19:52.712Z,24.23
2017-06-23T07:22:21.788Z,23.47
2017-06-23T07:24:50.167Z,20.63
2017-06-23T07:27:18.455Z,20.60
2017-06-23T07:29:46.824Z,17.20
2017-06-23T07:32:15.208Z,19.87
2017-06-23T07:34:43.687Z,18.77
2017-06-23T07:37:12.063Z,19.97
2017-06-23T07:39:40.443Z,19.70
2017-06-23T07:42:08.699Z,19.90
2017-06-23T07:44:37.095Z,21.60
2017-06-23T07:47:05.380Z,18.37
2017-06-23T07:49:33.677Z,18.53
2017-06-23T07:52:02.749Z,18.30
2017-06-23T07:54:31.136Z,18.47
2017-06-23T07:56:59.508Z,16.03
2017-06-23T07:59:27.889Z,16.07
2017-06-23T08:01:56.311Z,15.30
2017-06-23T08:04:24.588Z,13.93
2017-06-23T08:06:53.039Z,15.03
2017-06-23T08:09:21.396Z,13.83
2017-06-23T08:11:49.793Z,13.77
2017-06-23T08:14:18.065Z,13.87
2017-06-23T08:16:46.320Z,13.50
2017-06-23T08:19:14.712Z,13.37
2017-06-23T08:21:43.096Z,12.90
2017-06-23T08:24:11.479Z,14.17
2017-06-23T08:26:39.751Z,13.73
2017-06-23T08:29:08.036Z,12.17
2017-06-23T08:31:36.401Z,11.93
2017-06-23T08:34:04.721Z,11.70
2017-06-23T08:36:33.785Z,11.33
2017-06-23T08:39:02.054Z,11.57
2017-06-23T08:41:30.448Z,11.20
2017-06-23T08:43:58.745Z,10.70
2017-06-23T08:46:27.812Z,10.77
2017-06-23T08:48:56.072Z,10.43
2017-06-23T08:51:24.491Z,10.67
2017-06-23T08:53:53.524Z,10.50
2017-06-23T08:56:21.836Z,10.80
2017-06-23T08:58:50.936Z,10.50
2017-06-23T09:01:19.977Z,11.03
2017-06-23T09:03:49.079Z,9.60
2017-06-23T09:06:18.122Z,9.67
2017-06-23T09:08:46.427Z,9.17
2017-06-23T09:11:14.699Z,9.80
2017-06-23T09:13:43.084Z,8.50
2017-06-23T09:16:11.356Z,8.73
2017-06-23T09:18:39.630Z,8.13
2017-06-23T09:21:07.935Z,8.37
2017-06-23T09:23:36.288Z,7.60
2017-06-23T09:26:04.675Z,8.00
2017-06-23T09:28:32.958Z,8.47
2017-06-23T09:31:01.237Z,8.37
2017-06-23T09:33:29.616Z,8.47
2017-06-23T09:35:57.935Z,8.57
2017-06-23T09:38:26.199Z,7.90
2017-06-23T09:40:54.484Z,7.07
2017-06-23T09:43:23.177Z,7.80
2017-06-23T09:45:51.444Z,7.77
2017-06-23T09:48:19.733Z,8.63
2017-06-23T09:50:48.022Z,7.90
2017-06-23T09:53:16.306Z,8.47
2017-06-23T09:55:44.572Z,7.47
2017-06-23T09:58:13.832Z,7.93
2017-06-23T10:00:42.148Z,7.83
2017-06-23T10:03:10.390Z,7.60
2017-06-23T10:05:38.669Z,7.07
2017-06-23T10:08:06.987Z,7.13
2017-06-23T10:10:35.254Z,8.60
2017-06-23T10:13:03.516Z,8.47
2017-06-23T10:15:31.789Z,7.87
2017-06-23T10:18:00.054Z,7.60
2017-06-23T10:20:28.375Z,6.93
2017-06-23T10:22:56.656Z,6.33
2017-06-23T10:25:24.963Z,6.47
2017-06-23T10:27:53.982Z,6.33
2017-06-23T10:30:22.246Z,6.40
2017-06-23T10:32:50.568Z,5.70
2017-06-23T10:35:18.853Z,6.40
2017-06-23T10:37:47.140Z,4.93
2017-06-23T10:40:15.393Z,5.90
2017-06-23T10:42:43.658Z,6.00
2017-06-23T10:45:11.925Z,5.37
2017-06-23T10:47:40.328Z,6.10
2017-06-23T10:50:08.576Z,4.97
2017-06-23T10:52:36.873Z,5.30
2017-06-23T10:55:05.295Z,6.43
2017-06-23T10:57:34.320Z,7.10
2017-06-23T11:00:02.644Z,5.97
2017-06-23T11:02:30.902Z,5.93
2017-06-23T11:04:59.190Z,5.67
2017-06-23T11:07:27.457Z,5.73
2017-06-23T11:09:55.774Z,5.77
2017-06-23T11:12:24.111Z,5.97
2017-06-23T11:14:52.380Z,6.30
2017-06-23T11:17:20.650Z,5.60
2017-06-23T11:19:48.956Z,5.20
2017-06-23T11:22:17.364Z,4.80
2017-06-23T11:24:46.425Z,5.90
2017-06-23T11:27:14.708Z,5.60
2017-06-23T11:29:42.990Z,5.43
2017-06-23T11:32:11.359Z,4.80
2017-06-23T11:34:39.610Z,4.77
2017-06-23T11:37:09.089Z,4.87
2017-06-23T11:39:38.132Z,5.30
2017-06-23T11:42:06.404Z,5.40
2017-06-23T11:44:34.658Z,4.70
2017-06-23T11:47:02.919Z,6.40
2017-06-23T11:49:31.253Z,5.50
2017-06-23T11:51:59.524Z,5.33
2017-06-23T11:54:27.859Z,5.90
2017-06-23T11:56:56.189Z,5.13
2017-06-23T11:59:24.566Z,5.40
2017-06-23T12:01:52.936Z,5.30
2017-06-23T12:04:21.204Z,6.90
2017-06-23T12:06:49.593Z,6.13
2017-06-23T12:09:17.868Z,6.00
2017-06-23T12:11:46.350Z,5.63
2017-06-23T12:14:14.630Z,6.37
2017-06-23T12:16:43.008Z,5.73
2017-06-23T12:19:11.282Z,6.43
2017-06-23T12:21:39.544Z,6.03
2017-06-23T12:24:07.846Z,5.63
2017-06-23T12:26:36.109Z,5.50
2017-06-23T12:29:04.410Z,5.20
2017-06-23T12:31:32.768Z,5.10
2017-06-23T12:34:01.048Z,5.50
2017-06-23T12:36:29.342Z,5.70
2017-06-23T12:38:57.714Z,5.20
2017-06-23T12:41:25.981Z,5.63
2017-06-23T12:43:54.260Z,5.10
2017-06-23T12:46:22.553Z,5.00
2017-06-23T12:48:50.823Z,5.00
2017-06-23T12:51:19.209Z,5.40
2017-06-23T12:53:47.577Z,5.10
2017-06-23T12:56:15.948Z,4.57
2017-06-23T12:58:44.190Z,5.37
2017-06-23T13:01:12.607Z,5.33
2017-06-23T13:03:40.883Z,4.80
2017-06-23T13:06:09.172Z,5.50
2017-06-23T13:08:37.438Z,5.70
2017-06-23T13:11:05.717Z,5.27
2017-06-23T13:13:33.984Z,5.90
2017-06-23T13:16:02.262Z,5.83
2017-06-23T13:18:30.635Z,5.40
2017-06-23T13:20:58.922Z,5.20
2017-06-23T13:23:27.261Z,5.43
2017-06-23T13:25:55.585Z,6.20
2017-06-23T13:28:23.832Z,5.30
2017-06-23T13:30:52.149Z,5.50
2017-06-23T13:33:20.421Z,5.20
2017-06-23T13:35:48.787Z,5.30
2017-06-23T13:38:17.067Z,5.77
2017-06-23T13:40:45.434Z,5.00
2017-06-23T13:43:13.716Z,5.07
2017-06-23T13:45:41.963Z,5.90
2017-06-23T13:48:10.263Z,5.43
2017-06-23T13:50:38.528Z,5.37
2017-06-23T13:53:06.799Z,6.00
2017-06-23T13:55:35.110Z,6.03
2017-06-23T13:58:03.399Z,5.77
2017-06-23T14:00:31.703Z,6.00
2017-06-23T14:02:59.983Z,6.23
2017-06-23T14:05:28.427Z,6.13
2017-06-23T14:07:56.689Z,6.10
2017-06-23T14:10:24.980Z,6.93
2017-06-23T14:12:54.044Z,6.27
2017-06-23T14:15:23.185Z,6.10
2017-06-23T14:17:51.473Z,5.70
2017-06-23T14:20:20.548Z,6.57
2017-06-23T14:22:48.813Z,6.30
2017-06-23T14:25:17.083Z,5.97
2017-06-23T14:27:45.366Z,6.33
2017-06-23T14:30:13.631Z,6.80
2017-06-23T14:32:41.938Z,7.00
2017-06-23T14:35:10.212Z,6.73
2017-06-23T14:37:38.493Z,7.07
2017-06-23T14:40:06.766Z,6.33
2017-06-23T14:42:35.065Z,6.93
2017-06-23T14:45:03.328Z,6.83
2017-06-23T14:47:31.631Z,6.33
2017-06-23T14:49:59.901Z,6.20
2017-06-23T14:52:29.281Z,6.60
2017-06-23T14:54:57.569Z,5.70
2017-06-23T14:57:25.937Z,5.70
2017-06-23T14:59:54.213Z,5.90
2017-06-23T15:02:22.481Z,5.20
2017-06-23T15:04:50.874Z,5.20
2017-06-23T15:07:19.125Z,5.60
2017-06-23T15:09:47.385Z,5.40
2017-06-23T15:12:15.683Z,5.93
2017-06-23T15:14:43.964Z,5.47
2017-06-23T15:17:12.266Z,5.20
2017-06-23T15:19:40.514Z,4.87
2017-06-23T15:22:08.808Z,5.10
2017-06-23T15:24:37.055Z,5.30
2017-06-23T15:27:05.324Z,5.03
2017-06-23T15:29:33.602Z,5.20
2017-06-23T15:32:02.637Z,4.90
2017-06-23T15:34:30.924Z,5.17
2017-06-23T15:36:59.175Z,5.13
2017-06-23T15:39:27.522Z,5.47
2017-06-23T15:41:55.877Z,4.80
2017-06-23T15:44:24.264Z,5.80
2017-06-23T15:46:52.527Z,5.13
2017-06-23T15:49:20.780Z,6.40
2017-06-23T15:51:49.093Z,6.10
2017-06-23T15:54:17.368Z,5.13
2017-06-23T15:56:45.734Z,5.47
2017-06-23T15:59:14.036Z,5.43
2017-06-23T16:01:42.419Z,5.80
2017-06-23T16:04:10.789Z,5.90
2017-06-23T16:06:39.173Z,5.87
2017-06-23T16:09:07.543Z,6.10
2017-06-23T16:11:35.922Z,5.73
2017-06-23T16:14:04.326Z,5.57
2017-06-23T16:16:32.610Z,5.90
2017-06-23T16:19:01.684Z,5.60
2017-06-23T16:21:29.925Z,5.90
2017-06-23T16:23:58.194Z,6.03
2017-06-23T16:26:26.498Z,6.20
2017-06-23T16:28:54.874Z,5.37
2017-06-23T16:31:23.317Z,5.30
2017-06-23T16:33:52.444Z,5.70
2017-06-23T16:36:20.696Z,6.00
2017-06-23T16:38:49.017Z,5.63
2017-06-23T16:41:17.287Z,5.60
2017-06-23T16:43:45.534Z,5.13
2017-06-23T16:46:13.810Z,5.87
2017-06-23T16:48:42.082Z,5.27
2017-06-23T16:51:10.410Z,5.93
2017-06-23T16:53:38.666Z,6.00
2017-06-23T16:56:07.046Z,5.30
2017-06-23T16:58:35.294Z,5.67
2017-06-23T17:01:03.593Z,6.10
2017-06-23T17:03:31.888Z,5.20
2017-06-23T17:06:00.165Z,4.53
2017-06-23T17:08:28.530Z,4.90
2017-06-23T17:10:56.817Z,5.10
2017-06-23T17:13:25.152Z,5.53
2017-06-23T17:15:53.434Z,5.97
2017-06-23T17:18:21.811Z,5.40
2017-06-23T17:20:50.089Z,5.33
2017-06-23T17:23:18.387Z,5.43
2017-06-23T17:25:47.421Z,5.40
2017-06-23T17:28:15.742Z,5.87
2017-06-23T17:30:44.019Z,5.00
2017-06-23T17:33:12.404Z,5.43
2017-06-23T17:35:40.780Z,6.30
2017-06-23T17:38:09.052Z,5.63
2017-06-23T17:40:37.436Z,5.43
2017-06-23T17:43:06.494Z,5.40
2017-06-23T17:45:34.912Z,5.90
2017-06-23T17:48:03.190Z,5.40
2017-06-23T17:50:31.562Z,6.00
2017-06-23T17:52:59.950Z,6.30
2017-06-23T17:55:28.220Z,6.30
2017-06-23T17:57:56.535Z,7.33
2017-06-23T18:00:25.585Z,6.27
2017-06-23T18:02:53.893Z,6.50
2017-06-23T18:05:22.969Z,6.53
2017-06-23T18:07:51.336Z,6.30
2017-06-23T18:10:19.623Z,6.13
2017-06-23T18:12:47.895Z,5.80
2017-06-23T18:15:16.184Z,6.27
2017-06-23T18:17:44.546Z,5.63
2017-06-23T18:20:12.822Z,7.50
2017-06-23T18:22:41.115Z,6.37
2017-06-23T18:25:09.475Z,5.90
2017-06-23T18:27:37.843Z,6.10
2017-06-23T18:30:06.420Z,5.80
2017-06-23T18:32:34.702Z,6.30
2017-06-23T18:35:03.014Z,7.17
2017-06-23T18:37:31.301Z,6.53
2017-06-23T18:40:00.331Z,6.37
2017-06-23T18:42:28.624Z,5.73
2017-06-23T18:44:56.878Z,6.87
2017-06-23T18:47:25.197Z,7.43
2017-06-23T18:49:53.483Z,6.20
2017-06-23T18:52:21.742Z,6.30
2017-06-23T18:54:50.020Z,6.63
2017-06-23T18:57:18.286Z,6.40
2017-06-23T18:59:46.566Z,6.67
2017-06-23T19:02:14.851Z,6.63
2017-06-23T19:04:43.243Z,6.47
2017-06-23T19:07:11.637Z,7.53
2017-06-23T19:09:39.883Z,6.27
2017-06-23T19:12:08.294Z,6.60
2017-06-23T19:14:36.660Z,6.13
2017-06-23T19:17:04.956Z,6.07
2017-06-23T19:19:34.036Z,5.73
2017-06-23T19:22:02.297Z,6.40
2017-06-23T19:24:30.599Z,6.80
2017-06-23T19:26:58.879Z,7.03
2017-06-23T19:29:27.235Z,6.60
2017-06-23T19:31:55.498Z,7.47
2017-06-23T19:34:23.914Z,7.30
2017-06-23T19:36:52.159Z,6.20
2017-06-23T19:39:20.448Z,6.93
2017-06-23T19:41:48.752Z,7.07
2017-06-23T19:44:17.824Z,7.93
2017-06-23T19:46:46.176Z,7.00
2017-06-23T19:49:14.510Z,7.17
2017-06-23T19:51:43.647Z,8.00
2017-06-23T19:54:12.726Z,7.40
2017-06-23T19:56:41.012Z,7.20
2017-06-23T19:59:09.316Z,6.90
2017-06-23T20:01:37.623Z,7.23
2017-06-23T20:04:07.242Z,7.53
2017-06-23T20:06:36.304Z,7.20
2017-06-23T20:09:04.632Z,11.83
2017-06-23T20:11:33.023Z,8.50
2017-06-23T20:14:01.459Z,7.73
2017-06-23T20:16:30.031Z,8.77
2017-06-23T20:18:58.372Z,7.70
2017-06-23T20:21:26.692Z,7.10
2017-06-23T20:23:56.247Z,8.10
2017-06-23T20:26:24.599Z,7.33
2017-06-23T20:28:53.662Z,7.80
2017-06-23T20:31:22.214Z,7.67
2017-06-23T20:33:50.931Z,8.50
2017-06-23T20:36:19.303Z,8.03
2017-06-23T20:38:47.659Z,8.37
2017-06-23T20:41:16.058Z,8.10
2017-06-23T20:43:44.353Z,9.40
2017-06-23T20:46:12.883Z,8.60
2017-06-23T20:48:41.219Z,10.00
2017-06-23T20:51:09.856Z,9.30
2017-06-23T20:53:38.230Z,9.23
2017-06-23T20:56:06.564Z,8.23
2017-06-23T20:58:34.846Z,8.20
2017-06-23T21:01:03.254Z,9.47
2017-06-23T21:03:31.520Z,9.63
2017-06-23T21:06:00.584Z,9.47
2017-06-23T21:08:28.876Z,9.90
2017-06-23T21:10:57.243Z,8.60
2017-06-23T21:13:25.528Z,8.90
2017-06-23T21:15:53.813Z,9.63
2017-06-23T21:18:22.173Z,9.53
2017-06-23T21:20:50.565Z,8.67
2017-06-23T21:23:18.941Z,9.83
2017-06-23T21:25:47.965Z,9.20
2017-06-23T21:28:16.254Z,9.83
2017-06-23T21:30:44.515Z,9.20
2017-06-23T21:33:12.837Z,9.50
2017-06-23T21:35:41.104Z,9.63
2017-06-23T21:38:09.406Z,8.90
2017-06-23T21:40:50.262Z,8.70
2017-06-23T21:43:18.581Z,9.47
2017-06-23T21:45:46.846Z,9.30
2017-06-23T21:48:15.116Z,9.80
2017-06-23T21:50:44.164Z,9.80
2017-06-23T21:53:12.481Z,9.77
2017-06-23T21:55:41.539Z,10.07
2017-06-23T21:58:10.006Z,9.53
2017-06-23T22:00:38.529Z,9.80
2017-06-23T22:03:06.889Z,9.13
2017-06-23T22:05:35.158Z,9.93
2017-06-23T22:08:03.436Z,9.30
2017-06-23T22:10:31.709Z,10.77
2017-06-23T22:13:00.088Z,11.37
2017-06-23T22:15:28.469Z,10.80
2017-06-23T22:17:56.794Z,10.63
2017-06-23T22:20:25.119Z,11.80
2017-06-23T22:22:53.404Z,10.23
2017-06-23T22:25:21.794Z,10.50
2017-06-23T22:27:50.159Z,10.30
2017-06-23T22:30:18.540Z,9.23
2017-06-23T22:32:46.816Z,9.80
2017-06-23T22:35:15.081Z,10.50
2017-06-23T22:37:43.480Z,9.33
2017-06-23T22:40:11.735Z,10.03
2017-06-23T22:42:40.037Z,9.03
2017-06-23T22:45:08.292Z,9.40
2017-06-23T22:47:36.586Z,9.40
2017-06-23T22:50:04.947Z,8.63
2017-06-23T22:52:33.214Z,7.63
2017-06-23T22:55:01.565Z,8.13
2017-06-23T22:57:29.826Z,7.90
2017-06-23T22:59:58.114Z,8.30
2017-06-23T23:02:26.384Z,7.67
2017-06-23T23:04:54.687Z,8.20
2017-06-23T23:07:23.073Z,7.50
2017-06-23T23:09:51.337Z,7.37
2017-06-23T23:12:19.608Z,7.40
2017-06-23T23:14:47.854Z,7.97
2017-06-23T23:17:16.314Z,7.87
2017-06-23T23:19:44.576Z,7.60
2017-06-23T23:22:12.830Z,9.43
2017-06-23T23:24:41.120Z,8.17
2017-06-23T23:27:09.389Z,8.50
2017-06-23T23:29:37.775Z,7.83
2017-06-23T23:32:06.052Z,7.60
2017-06-23T23:34:34.429Z,7.80
2017-06-23T23:37:02.709Z,9.00
2017-06-23T23:39:30.963Z,8.10
2017-06-23T23:41:59.230Z,9.27
2017-06-23T23:44:27.497Z,9.00
2017-06-23T23:46:55.798Z,8.20
2017-06-23T23:49:24.056Z,8.10
2017-06-23T23:51:52.338Z,8.47
2017-06-23T23:54:20.603Z,8.37
2017-06-23T23:56:48.920Z,7.97
2017-06-23T23:59:17.300Z,8.47
